Capitol Logistics 7336

Operating for MZN



KCVG
Cincinnati/Northern Kentucky International Airport
Covington, Kentucky
KPDX
Portland International Airport
Portland, Oregon

Activity Log

Date Flight Route Aircraft Duration
No Flights Yet

Route Details

Aircraft Information
Primary: Boeing 767-300BDSF
Backup: Boeing 757-200SF
Route Data
Distance: 1714nm
Duration: 4h 38m
Recm'd Route: LOVEY6 CADIZ JOT DBQ MCW DPR J34 BIL J16 PDT JKNOX HHOOD4
Origin Wx: KCVG 141752Z 19008KT 10SM BKN120 BKN200 13/04 A3007 RMK AO2 SLP180 T01280039 10128 20106 58021
Dest. Wx: KPDX 141753Z 31006KT 10SM CLR 15/M03 A3016 RMK AO2 SLP211 T01501033 10150 20072 58010
Notes: